createdAt,value
2023-10-16T00:01:33.250Z,7.00
2023-10-16T00:04:00.483Z,5.50
2023-10-16T00:06:27.715Z,5.57
2023-10-16T00:08:55.041Z,5.73
2023-10-16T00:11:27.122Z,5.93
2023-10-16T00:13:58.103Z,5.53
2023-10-16T00:16:25.416Z,5.90
2023-10-16T00:18:54.637Z,6.27
2023-10-16T00:21:22.173Z,6.13
2023-10-16T00:23:49.054Z,6.83
2023-10-16T00:26:22.490Z,6.43
2023-10-16T00:28:55.791Z,6.93
2023-10-16T00:31:22.720Z,7.20
2023-10-16T00:33:51.983Z,5.00
2023-10-16T00:36:19.029Z,5.87
2023-10-16T00:38:52.896Z,5.90
2023-10-16T00:41:25.166Z,6.00
2023-10-16T00:43:52.834Z,5.53
2023-10-16T00:46:39.710Z,6.07
2023-10-16T00:49:07.780Z,5.90
2023-10-16T00:51:40.668Z,7.00
2023-10-16T00:54:28.413Z,6.37
2023-10-16T00:57:01.112Z,5.80
2023-10-16T00:59:29.617Z,6.10
2023-10-16T01:02:25.857Z,5.87
2023-10-16T01:04:53.733Z,5.70
2023-10-16T01:07:21.101Z,6.07
2023-10-16T01:09:48.647Z,5.73
2023-10-16T01:12:16.362Z,6.07
2023-10-16T01:14:43.312Z,5.60
2023-10-16T01:17:10.668Z,8.30
2023-10-16T01:19:38.227Z,7.70
2023-10-16T01:22:05.626Z,15.00
2023-10-16T01:24:32.403Z,10.00
2023-10-16T01:27:07.739Z,13.30
2023-10-16T01:29:38.546Z,10.50
2023-10-16T01:32:05.893Z,9.17
2023-10-16T01:34:36.003Z,12.03
2023-10-16T01:37:10.405Z,6.57
2023-10-16T01:39:49.868Z,10.23
2023-10-16T01:42:19.630Z,10.07
2023-10-16T01:44:47.792Z,10.20
2023-10-16T01:47:16.500Z,9.60
2023-10-16T01:49:44.412Z,10.33
2023-10-16T01:52:13.157Z,9.90
2023-10-16T01:54:44.041Z,9.60
2023-10-16T01:57:13.957Z,16.37
2023-10-16T01:59:46.088Z,8.70
2023-10-16T02:02:14.632Z,5.20
2023-10-16T02:04:42.412Z,6.33
2023-10-16T02:07:13.385Z,5.20
2023-10-16T02:09:41.002Z,6.87
2023-10-16T02:12:15.671Z,5.90
2023-10-16T02:14:43.598Z,5.70
2023-10-16T02:17:37.033Z,7.57
2023-10-16T02:20:12.345Z,4.30
2023-10-16T02:22:41.394Z,8.20
2023-10-16T02:25:18.285Z,4.40
2023-10-16T02:27:45.194Z,3.77
2023-10-16T02:30:24.774Z,6.03
2023-10-16T02:32:54.709Z,4.53
2023-10-16T02:35:22.586Z,5.20
2023-10-16T02:37:55.000Z,4.30
2023-10-16T02:40:21.982Z,7.20
2023-10-16T02:42:53.478Z,6.27
2023-10-16T02:45:26.153Z,3.40
2023-10-16T02:47:54.390Z,4.47
2023-10-16T02:50:21.868Z,4.57
2023-10-16T02:52:51.655Z,3.37
2023-10-16T02:55:19.595Z,3.83
2023-10-16T02:57:46.503Z,3.83
2023-10-16T03:00:21.671Z,3.40
2023-10-16T03:02:48.971Z,3.30
2023-10-16T03:05:23.251Z,4.10
2023-10-16T03:07:51.188Z,3.83
2023-10-16T03:10:18.348Z,4.10
2023-10-16T03:12:45.836Z,3.90
2023-10-16T03:15:22.038Z,6.33
2023-10-16T03:17:52.190Z,4.87
2023-10-16T03:20:23.871Z,3.73
2023-10-16T03:22:52.037Z,5.37
2023-10-16T03:25:37.664Z,5.03
2023-10-16T03:28:06.977Z,3.57
2023-10-16T03:30:34.149Z,3.90
2023-10-16T03:33:02.117Z,5.43
2023-10-16T03:35:31.208Z,4.30
2023-10-16T03:37:58.812Z,4.23
2023-10-16T03:40:29.108Z,4.00
2023-10-16T03:42:56.537Z,3.63
2023-10-16T03:45:23.847Z,3.77
2023-10-16T03:47:58.557Z,4.77
2023-10-16T03:50:27.393Z,3.90
2023-10-16T03:52:56.079Z,3.90
2023-10-16T03:55:27.038Z,3.40
2023-10-16T03:57:54.350Z,5.00
2023-10-16T04:00:27.517Z,4.07
2023-10-16T04:02:56.953Z,4.17
2023-10-16T04:05:34.982Z,4.60
2023-10-16T04:08:02.488Z,4.07
2023-10-16T04:10:30.121Z,4.37
2023-10-16T04:12:58.533Z,5.03
2023-10-16T04:15:44.214Z,5.23
2023-10-16T04:18:27.032Z,3.67
2023-10-16T04:21:09.821Z,6.20
2023-10-16T04:23:57.105Z,4.53
2023-10-16T04:26:28.977Z,5.40
2023-10-16T04:29:12.716Z,4.87
2023-10-16T04:31:46.498Z,5.33
2023-10-16T04:34:28.949Z,5.50
2023-10-16T04:37:16.745Z,4.53
2023-10-16T04:39:56.633Z,6.77
2023-10-16T04:42:46.010Z,4.53
2023-10-16T04:45:20.812Z,6.90
2023-10-16T04:47:55.241Z,5.17
2023-10-16T04:53:14.049Z,4.13
2023-10-16T04:55:47.419Z,5.10
2023-10-16T04:58:25.089Z,5.17
2023-10-16T05:01:01.622Z,5.03
2023-10-16T05:03:45.453Z,5.23
2023-10-16T05:06:18.646Z,4.40
2023-10-16T05:08:59.176Z,4.90
2023-10-16T05:11:45.395Z,5.13
2023-10-16T05:14:23.910Z,5.50
2023-10-16T05:17:12.408Z,5.37
2023-10-16T05:19:39.434Z,7.20
2023-10-16T05:22:26.234Z,6.47
2023-10-16T05:25:11.603Z,7.63
2023-10-16T05:27:57.063Z,7.07
2023-10-16T05:30:47.182Z,6.50
2023-10-16T05:33:32.815Z,6.53
2023-10-16T05:36:18.410Z,7.20
2023-10-16T05:39:04.018Z,7.27
2023-10-16T05:41:49.440Z,6.87
2023-10-16T05:44:35.029Z,6.73
2023-10-16T05:47:20.444Z,7.20
2023-10-16T05:50:05.979Z,8.80
2023-10-16T05:52:51.495Z,6.30
2023-10-16T05:55:37.093Z,7.27
2023-10-16T05:58:22.676Z,6.87
2023-10-16T06:01:08.153Z,5.40
2023-10-16T06:03:53.692Z,6.70
2023-10-16T06:06:39.199Z,7.60
2023-10-16T06:09:24.690Z,5.40
2023-10-16T06:12:10.240Z,7.30
2023-10-16T06:14:37.021Z,6.00
2023-10-16T06:17:14.628Z,4.90
2023-10-16T06:19:44.143Z,5.17
2023-10-16T06:22:12.684Z,4.67
2023-10-16T06:24:46.099Z,4.93
2023-10-16T06:27:19.846Z,4.00
2023-10-16T06:29:55.111Z,5.23
2023-10-16T06:32:26.677Z,6.70
2023-10-16T06:35:08.525Z,5.53
2023-10-16T06:37:36.725Z,4.30
2023-10-16T06:40:06.289Z,6.43
2023-10-16T06:42:33.271Z,6.00
2023-10-16T06:45:09.256Z,5.63
2023-10-16T06:47:37.280Z,5.63
2023-10-16T06:50:29.312Z,8.27
2023-10-16T06:53:00.302Z,5.60
2023-10-16T06:55:27.429Z,5.83
2023-10-16T06:57:54.443Z,6.30
2023-10-16T07:00:24.561Z,6.33
2023-10-16T07:02:57.674Z,5.50
2023-10-16T07:05:26.017Z,5.60
2023-10-16T07:07:58.450Z,5.50
2023-10-16T07:10:27.036Z,5.43
2023-10-16T07:13:00.311Z,7.43
2023-10-16T07:15:30.208Z,4.40
2023-10-16T07:17:58.219Z,8.43
2023-10-16T07:20:31.401Z,7.23
2023-10-16T07:23:00.452Z,7.43
2023-10-16T07:25:38.948Z,6.20
2023-10-16T07:28:10.485Z,7.40
2023-10-16T07:30:44.257Z,7.10
2023-10-16T07:33:15.565Z,7.60
2023-10-16T07:35:46.043Z,8.47
2023-10-16T07:38:23.340Z,7.73
2023-10-16T07:40:58.377Z,7.60
2023-10-16T07:43:29.323Z,6.97
2023-10-16T07:46:14.832Z,7.60
2023-10-16T07:49:10.765Z,7.17
2023-10-16T07:51:39.633Z,7.10
2023-10-16T07:54:08.460Z,7.20
2023-10-16T07:56:36.750Z,6.53
2023-10-16T07:59:19.668Z,6.83
2023-10-16T08:01:50.603Z,6.57
2023-10-16T08:04:40.756Z,7.17
2023-10-16T08:07:11.598Z,7.33
2023-10-16T08:09:38.482Z,5.93
2023-10-16T08:12:19.817Z,7.00
2023-10-16T08:14:48.054Z,6.77
2023-10-16T08:17:18.692Z,8.77
2023-10-16T08:19:47.019Z,8.17
2023-10-16T08:22:17.294Z,7.07
2023-10-16T08:24:59.180Z,7.40
2023-10-16T08:27:39.454Z,6.30
2023-10-16T08:30:19.246Z,6.10
2023-10-16T08:32:50.469Z,5.83
2023-10-16T08:35:23.908Z,6.30
2023-10-16T08:37:59.988Z,7.20
2023-10-16T08:40:36.810Z,6.60
2023-10-16T08:43:09.460Z,5.87
2023-10-16T08:45:40.799Z,5.87
2023-10-16T08:48:09.202Z,7.40
2023-10-16T08:50:44.923Z,5.73
2023-10-16T08:53:33.909Z,7.73
2023-10-16T08:56:09.913Z,5.60
2023-10-16T08:58:41.939Z,7.30
2023-10-16T09:01:09.900Z,5.10
2023-10-16T09:03:45.596Z,4.90
2023-10-16T09:06:20.152Z,4.30
2023-10-16T09:08:46.906Z,5.23
2023-10-16T09:11:17.720Z,4.10
2023-10-16T09:13:50.502Z,4.60
2023-10-16T09:16:22.110Z,5.43
2023-10-16T09:18:49.291Z,4.97
2023-10-16T09:21:24.253Z,4.37
2023-10-16T09:23:59.528Z,5.47
2023-10-16T09:26:39.457Z,4.57
2023-10-16T09:29:14.490Z,4.33
2023-10-16T09:31:48.428Z,4.40
2023-10-16T09:34:19.974Z,4.80
2023-10-16T09:37:10.927Z,4.10
2023-10-16T09:39:50.661Z,5.90
2023-10-16T09:42:25.689Z,4.10
2023-10-16T09:45:08.495Z,5.00
2023-10-16T09:47:39.709Z,4.77
2023-10-16T09:50:18.174Z,5.93
2023-10-16T09:52:47.115Z,5.60
2023-10-16T09:55:14.298Z,5.40
2023-10-16T09:57:54.229Z,3.50
2023-10-16T10:00:34.479Z,3.83
2023-10-16T10:03:07.494Z,5.40
2023-10-16T10:05:42.905Z,4.00
2023-10-16T10:08:18.837Z,3.93
2023-10-16T10:11:22.291Z,3.53
2023-10-16T10:14:12.631Z,6.43
2023-10-16T10:16:46.744Z,4.13
2023-10-16T10:19:32.725Z,4.47
2023-10-16T10:22:18.554Z,3.80
2023-10-16T10:24:52.523Z,4.67
2023-10-16T10:27:19.529Z,7.60
2023-10-16T10:29:49.856Z,4.40
2023-10-16T10:32:17.027Z,3.77
2023-10-16T10:34:45.458Z,3.80
2023-10-16T10:37:46.301Z,4.17
2023-10-16T10:40:23.286Z,4.83
2023-10-16T10:42:59.073Z,4.90
2023-10-16T10:45:36.912Z,4.20
2023-10-16T10:48:08.083Z,4.23
2023-10-16T10:50:35.446Z,4.47
2023-10-16T10:53:07.371Z,5.30
2023-10-16T10:55:34.165Z,4.60
2023-10-16T10:58:03.179Z,4.10
2023-10-16T11:00:29.969Z,5.60
2023-10-16T11:03:02.963Z,4.00
2023-10-16T11:05:32.373Z,4.63
2023-10-16T11:08:10.556Z,4.20
2023-10-16T11:10:42.866Z,4.27
2023-10-16T11:13:10.839Z,3.73
2023-10-16T11:15:38.192Z,3.50
2023-10-16T11:18:12.689Z,3.73
2023-10-16T11:20:40.920Z,3.20
2023-10-16T11:23:18.017Z,5.07
2023-10-16T11:25:47.387Z,3.70
2023-10-16T11:28:21.427Z,3.20
2023-10-16T11:30:51.146Z,2.67
2023-10-16T11:33:57.668Z,2.10
2023-10-16T11:36:24.863Z,1.93
2023-10-16T11:38:54.434Z,1.90
2023-10-16T11:41:22.112Z,2.67
2023-10-16T11:43:53.937Z,2.20
2023-10-16T11:46:29.752Z,2.00
2023-10-16T11:49:33.472Z,2.13
2023-10-16T11:52:09.843Z,2.80
2023-10-16T11:54:41.826Z,2.17
2023-10-16T11:57:14.249Z,1.70
2023-10-16T11:59:41.839Z,2.23
2023-10-16T12:02:15.878Z,2.13
2023-10-16T12:04:43.930Z,2.10
2023-10-16T12:07:15.602Z,2.00
2023-10-16T12:09:49.650Z,2.20
2023-10-16T12:12:25.781Z,4.63
2023-10-16T12:14:54.357Z,1.87
2023-10-16T12:17:21.906Z,2.37
2023-10-16T12:19:49.504Z,2.13
2023-10-16T12:22:22.565Z,2.33
2023-10-16T12:24:50.444Z,2.63
2023-10-16T12:27:17.598Z,2.50
2023-10-16T12:29:47.860Z,3.10
2023-10-16T12:32:15.050Z,2.47
2023-10-16T12:34:42.672Z,2.63
2023-10-16T12:37:10.895Z,2.43
2023-10-16T12:39:47.692Z,2.10
2023-10-16T12:42:15.486Z,3.00
2023-10-16T12:44:42.722Z,2.23
2023-10-16T12:47:09.759Z,2.03
2023-10-16T12:49:36.674Z,1.80
2023-10-16T12:52:03.652Z,2.00
2023-10-16T12:54:30.457Z,2.70
2023-10-16T12:56:58.826Z,2.77
2023-10-16T12:59:28.575Z,2.20
2023-10-16T13:01:55.423Z,2.83
2023-10-16T13:04:26.068Z,2.50
2023-10-16T13:06:53.182Z,2.50
2023-10-16T13:09:20.981Z,2.73
2023-10-16T13:11:47.945Z,3.30
2023-10-16T13:14:14.852Z,2.80
2023-10-16T13:16:42.659Z,2.97
2023-10-16T13:19:12.348Z,2.33
2023-10-16T13:21:39.533Z,2.83
2023-10-16T13:24:12.281Z,2.70
2023-10-16T13:26:42.433Z,4.43
2023-10-16T13:29:11.877Z,2.50
2023-10-16T13:31:43.019Z,2.47
2023-10-16T13:34:14.721Z,2.10
2023-10-16T13:36:57.876Z,2.90
2023-10-16T13:39:27.951Z,2.20
2023-10-16T13:41:56.909Z,3.80
2023-10-16T13:44:26.215Z,2.17
2023-10-16T13:46:54.643Z,2.00
2023-10-16T13:49:25.125Z,2.00
2023-10-16T13:51:55.017Z,2.37
2023-10-16T13:54:22.048Z,3.63
2023-10-16T13:56:49.587Z,2.10
2023-10-16T13:59:19.378Z,2.60
2023-10-16T14:01:47.450Z,3.40
2023-10-16T14:04:15.985Z,2.30
2023-10-16T14:06:45.333Z,2.27
2023-10-16T14:09:12.656Z,2.00
2023-10-16T14:11:48.836Z,2.27
2023-10-16T14:14:20.180Z,2.20
2023-10-16T14:16:52.340Z,2.73
2023-10-16T14:19:23.688Z,2.40
2023-10-16T14:21:53.994Z,2.43
2023-10-16T14:24:23.495Z,2.03
2023-10-16T14:26:51.730Z,2.00
2023-10-16T14:29:21.255Z,2.60
2023-10-16T14:31:52.909Z,2.73
2023-10-16T14:34:26.908Z,3.30
2023-10-16T14:36:55.561Z,2.87
2023-10-16T14:39:30.004Z,3.40
2023-10-16T14:41:58.589Z,2.20
2023-10-16T14:44:25.824Z,2.00
2023-10-16T14:46:52.874Z,3.60
2023-10-16T14:49:21.055Z,2.37
2023-10-16T14:51:48.167Z,2.17
2023-10-16T14:54:15.857Z,2.57
2023-10-16T14:56:45.485Z,2.23
2023-10-16T14:59:23.807Z,3.17
2023-10-16T15:01:52.105Z,3.23
2023-10-16T15:04:21.259Z,4.50
2023-10-16T15:06:49.150Z,25.10
2023-10-16T15:09:18.688Z,4.53
2023-10-16T15:11:50.792Z,4.33
2023-10-16T15:14:17.929Z,6.00
2023-10-16T15:16:45.038Z,2.50
2023-10-16T15:19:12.486Z,2.57
2023-10-16T15:21:41.282Z,2.80
2023-10-16T15:24:12.316Z,2.47
2023-10-16T15:26:39.270Z,2.40
2023-10-16T15:29:06.224Z,4.03
2023-10-16T15:31:33.596Z,2.23
2023-10-16T15:34:00.887Z,1.83
2023-10-16T15:36:27.897Z,2.40
2023-10-16T15:38:55.027Z,3.00
2023-10-16T15:41:24.199Z,4.70
2023-10-16T15:43:54.482Z,2.10
2023-10-16T15:46:32.253Z,1.90
2023-10-16T15:49:00.533Z,1.93
2023-10-16T15:51:31.767Z,3.43
2023-10-16T15:53:59.850Z,1.80
2023-10-16T15:56:28.015Z,2.20
2023-10-16T15:58:56.962Z,1.70
2023-10-16T16:01:26.784Z,2.63
2023-10-16T16:04:01.437Z,2.67
2023-10-16T16:06:32.389Z,3.00
2023-10-16T16:09:01.160Z,1.97
2023-10-16T16:11:29.628Z,2.50
2023-10-16T16:13:57.896Z,3.37
2023-10-16T16:16:24.847Z,4.10
2023-10-16T16:18:51.817Z,3.00
2023-10-16T16:21:18.690Z,3.77
2023-10-16T16:23:45.429Z,4.70
2023-10-16T16:26:12.321Z,4.00
2023-10-16T16:28:40.427Z,3.73
2023-10-16T16:31:08.705Z,3.43
2023-10-16T16:33:35.829Z,4.73
2023-10-16T16:36:02.903Z,5.07
2023-10-16T16:38:29.699Z,2.53
2023-10-16T16:40:56.524Z,2.40
2023-10-16T16:43:23.508Z,3.50
2023-10-16T16:45:51.417Z,3.43
2023-10-16T16:48:18.293Z,2.37
2023-10-16T16:50:46.952Z,3.67
2023-10-16T16:53:13.833Z,1.87
2023-10-16T16:55:40.681Z,3.30
2023-10-16T16:58:07.514Z,2.43
2023-10-16T17:00:34.582Z,3.60
2023-10-16T17:03:01.783Z,4.20
2023-10-16T17:05:28.669Z,5.23
2023-10-16T17:07:57.686Z,3.23
2023-10-16T17:10:29.331Z,2.87
2023-10-16T17:12:56.520Z,6.87
2023-10-16T17:15:27.293Z,2.40
2023-10-16T17:17:55.323Z,2.37
2023-10-16T17:20:22.985Z,3.40
2023-10-16T17:25:23.146Z,3.40
2023-10-16T17:27:50.633Z,3.17
2023-10-16T17:30:18.565Z,3.23
2023-10-16T17:32:45.958Z,3.60
2023-10-16T17:35:12.979Z,3.23
2023-10-16T17:37:41.228Z,4.97
2023-10-16T17:40:11.240Z,3.63
2023-10-16T17:42:38.416Z,2.60
2023-10-16T17:45:06.634Z,2.77
2023-10-16T17:47:35.100Z,3.80
2023-10-16T17:50:02.726Z,2.30
2023-10-16T17:52:35.263Z,3.17
2023-10-16T17:55:04.677Z,3.07
2023-10-16T17:57:32.720Z,3.23
2023-10-16T17:59:59.621Z,3.40
2023-10-16T18:02:26.794Z,3.97
2023-10-16T18:04:54.053Z,4.87
2023-10-16T18:07:21.069Z,6.23
2023-10-16T18:09:47.890Z,4.90
2023-10-16T18:12:21.080Z,4.50
2023-10-16T18:14:48.773Z,4.13
2023-10-16T18:17:18.366Z,5.67
2023-10-16T18:19:47.441Z,4.83
2023-10-16T18:22:15.692Z,6.90
2023-10-16T18:24:43.214Z,7.00
2023-10-16T18:27:14.956Z,6.70
2023-10-16T18:29:44.578Z,5.30
2023-10-16T18:32:11.629Z,6.53
2023-10-16T18:34:39.426Z,7.33
2023-10-16T18:37:06.539Z,7.20
2023-10-16T18:39:39.672Z,6.57
2023-10-16T18:42:11.152Z,6.10
2023-10-16T18:44:43.191Z,5.90
2023-10-16T18:47:13.945Z,7.07
2023-10-16T18:49:41.755Z,5.40
2023-10-16T18:52:10.178Z,6.87
2023-10-16T18:54:37.608Z,7.07
2023-10-16T18:57:04.812Z,7.60
2023-10-16T18:59:32.807Z,7.03
2023-10-16T19:02:00.459Z,6.80
2023-10-16T19:04:27.848Z,6.93
2023-10-16T19:06:54.915Z,6.40
2023-10-16T19:09:22.056Z,5.97
2023-10-16T19:11:49.083Z,6.97
2023-10-16T19:14:16.039Z,6.50
2023-10-16T19:16:43.043Z,7.53
2023-10-16T19:19:10.237Z,6.27
2023-10-16T19:21:39.404Z,5.73
2023-10-16T19:24:09.824Z,6.47
2023-10-16T19:26:38.411Z,5.57
2023-10-16T19:29:05.621Z,5.80
2023-10-16T19:31:33.495Z,7.30
2023-10-16T19:34:01.096Z,6.10
2023-10-16T19:36:30.381Z,6.80
2023-10-16T19:38:58.804Z,5.63
2023-10-16T19:41:34.585Z,5.87
2023-10-16T19:44:02.001Z,6.00
2023-10-16T19:46:32.228Z,6.20
2023-10-16T19:48:59.168Z,6.17
2023-10-16T19:51:26.066Z,5.90
2023-10-16T19:53:59.112Z,8.50
2023-10-16T19:56:26.318Z,7.30
2023-10-16T19:58:53.848Z,7.90
2023-10-16T20:01:23.791Z,7.30
2023-10-16T20:03:51.279Z,4.87
2023-10-16T20:06:19.925Z,5.20
2023-10-16T20:08:50.548Z,4.60
2023-10-16T20:11:18.200Z,5.73
2023-10-16T20:13:45.146Z,5.63
2023-10-16T20:16:15.063Z,4.90
2023-10-16T20:18:43.052Z,5.10
2023-10-16T20:21:18.867Z,4.80
2023-10-16T20:23:47.670Z,6.37
2023-10-16T20:26:19.929Z,7.97
2023-10-16T20:28:50.910Z,4.73
2023-10-16T20:31:19.782Z,5.60
2023-10-16T20:33:49.964Z,5.60
2023-10-16T20:36:18.402Z,5.97
2023-10-16T20:38:45.956Z,5.60
2023-10-16T20:41:14.077Z,5.70
2023-10-16T20:43:41.286Z,5.63
2023-10-16T20:46:08.242Z,5.33
2023-10-16T20:48:37.164Z,8.33
2023-10-16T20:51:08.431Z,5.47
2023-10-16T20:53:35.333Z,5.47
2023-10-16T20:56:02.160Z,6.67
2023-10-16T20:58:29.034Z,5.37
2023-10-16T21:00:56.847Z,5.83
2023-10-16T21:03:24.897Z,5.50
2023-10-16T21:05:52.225Z,6.23
2023-10-16T21:08:20.352Z,5.70
2023-10-16T21:10:47.754Z,5.83
2023-10-16T21:13:15.021Z,4.93
2023-10-16T21:15:46.064Z,6.13
2023-10-16T21:18:13.164Z,6.07
2023-10-16T21:20:40.391Z,4.70
2023-10-16T21:23:07.223Z,6.17
2023-10-16T21:25:34.555Z,5.40
2023-10-16T21:28:02.528Z,5.90
2023-10-16T21:30:29.810Z,5.90
2023-10-16T21:32:57.807Z,6.23
2023-10-16T21:35:28.003Z,6.07
2023-10-16T21:37:54.955Z,5.97
2023-10-16T21:40:24.862Z,5.67
2023-10-16T21:42:52.923Z,6.63
2023-10-16T21:45:20.488Z,7.33
2023-10-16T21:47:47.591Z,7.00
2023-10-16T21:50:14.662Z,5.90
2023-10-16T21:52:41.515Z,6.00
2023-10-16T21:55:08.839Z,5.70
2023-10-16T21:57:36.138Z,5.70
2023-10-16T22:00:13.570Z,5.83
2023-10-16T22:02:41.638Z,6.13
2023-10-16T22:05:13.057Z,5.40
2023-10-16T22:07:40.598Z,5.60
2023-10-16T22:10:11.096Z,6.07
2023-10-16T22:12:38.674Z,6.87
2023-10-16T22:15:11.356Z,5.60
2023-10-16T22:17:38.985Z,6.43
2023-10-16T22:20:12.145Z,5.53
2023-10-16T22:22:39.055Z,5.43
2023-10-16T22:25:06.115Z,5.33
2023-10-16T22:27:33.726Z,5.23
2023-10-16T22:30:01.357Z,5.13
2023-10-16T22:32:28.438Z,4.83
2023-10-16T22:34:55.330Z,5.63
2023-10-16T22:37:22.217Z,5.40
2023-10-16T22:39:49.091Z,6.40
2023-10-16T22:42:16.974Z,4.97
2023-10-16T22:44:43.836Z,5.43
2023-10-16T22:47:11.064Z,5.70
2023-10-16T22:49:37.988Z,5.83
2023-10-16T22:52:05.010Z,5.90
2023-10-16T22:54:32.780Z,5.73
2023-10-16T22:57:01.054Z,5.27
2023-10-16T22:59:27.900Z,5.67
2023-10-16T23:01:54.847Z,5.80
2023-10-16T23:04:21.734Z,5.30
2023-10-16T23:06:51.438Z,4.87
2023-10-16T23:09:30.484Z,6.00
2023-10-16T23:12:24.202Z,5.57
2023-10-16T23:14:51.358Z,5.87
2023-10-16T23:17:18.671Z,5.57
2023-10-16T23:19:46.995Z,6.07
2023-10-16T23:22:13.800Z,5.23
2023-10-16T23:24:40.609Z,5.37
2023-10-16T23:27:08.190Z,5.80
2023-10-16T23:29:35.167Z,5.23
2023-10-16T23:32:04.363Z,6.10
2023-10-16T23:34:31.918Z,5.33
2023-10-16T23:37:04.954Z,6.63
2023-10-16T23:39:31.977Z,5.87
2023-10-16T23:42:14.051Z,6.47
2023-10-16T23:44:42.260Z,6.37
2023-10-16T23:47:18.007Z,5.70
2023-10-16T23:49:48.557Z,6.27
2023-10-16T23:52:24.747Z,6.30
2023-10-16T23:55:07.916Z,6.67
2023-10-16T23:57:49.651Z,6.27
